createdAt,value
2018-06-25T00:00:20.219Z,20.54
2018-06-25T00:01:20.010Z,20.54
2018-06-25T00:02:20.110Z,20.54
2018-06-25T00:03:19.987Z,20.53
2018-06-25T00:04:20.043Z,20.54
2018-06-25T00:05:20.071Z,20.53
2018-06-25T00:06:20.114Z,20.53
2018-06-25T00:07:20.045Z,20.53
2018-06-25T00:08:20.100Z,20.53
2018-06-25T00:09:20.166Z,20.54
2018-06-25T00:10:20.194Z,20.53
2018-06-25T00:11:19.991Z,20.53
2018-06-25T00:12:20.049Z,20.53
2018-06-25T00:13:20.112Z,20.53
2018-06-25T00:14:20.142Z,20.53
2018-06-25T00:15:20.362Z,20.53
2018-06-25T00:16:20.210Z,20.53
2018-06-25T00:17:20.039Z,20.53
2018-06-25T00:18:20.237Z,20.53
2018-06-25T00:19:20.172Z,20.53
2018-06-25T00:20:20.077Z,20.53
2018-06-25T00:21:20.004Z,20.53
2018-06-25T00:22:19.986Z,20.53
2018-06-25T00:23:20.003Z,20.53
2018-06-25T00:24:20.154Z,20.53
2018-06-25T00:25:20.166Z,20.53
2018-06-25T00:26:20.032Z,20.52
2018-06-25T00:27:20.110Z,20.52
2018-06-25T00:28:20.043Z,20.51
2018-06-25T00:29:20.008Z,20.52
2018-06-25T00:30:20.157Z,20.53
2018-06-25T00:31:19.968Z,20.52
2018-06-25T00:32:19.984Z,20.51
2018-06-25T00:33:20.099Z,20.51
2018-06-25T00:34:20.275Z,20.51
2018-06-25T00:35:20.040Z,20.52
2018-06-25T00:36:20.037Z,20.51
2018-06-25T00:37:20.132Z,20.5
2018-06-25T00:38:20.134Z,20.51
2018-06-25T00:39:20.179Z,20.51
2018-06-25T00:40:20.004Z,20.51
2018-06-25T00:41:20.010Z,20.5
2018-06-25T00:42:20.174Z,20.5
2018-06-25T00:43:20.166Z,20.49
2018-06-25T00:44:20.400Z,20.5
2018-06-25T00:45:20.105Z,20.5
2018-06-25T00:46:20.004Z,20.5
2018-06-25T00:47:20.169Z,20.49
2018-06-25T00:48:20.122Z,20.5
2018-06-25T00:49:19.969Z,20.49
2018-06-25T00:50:20.414Z,20.49
2018-06-25T00:51:20.203Z,20.49
2018-06-25T00:52:20.180Z,20.49
2018-06-25T00:53:19.955Z,20.5
2018-06-25T00:54:20.148Z,20.5
2018-06-25T00:55:20.093Z,20.5
2018-06-25T00:56:20.097Z,20.49
2018-06-25T00:57:20.191Z,20.5
2018-06-25T00:58:20.086Z,20.48
2018-06-25T00:59:20.169Z,20.48
2018-06-25T01:00:20.170Z,20.49
2018-06-25T01:01:20.054Z,20.49
2018-06-25T01:02:20.375Z,20.49
2018-06-25T01:03:20.162Z,20.49
2018-06-25T01:04:20.090Z,20.48
2018-06-25T01:05:20.043Z,20.48
2018-06-25T01:06:20.247Z,20.48
2018-06-25T01:07:20.031Z,20.48
2018-06-25T01:08:20.148Z,20.48
2018-06-25T01:09:19.970Z,20.47
2018-06-25T01:10:19.969Z,20.48
2018-06-25T01:11:20.153Z,20.49
2018-06-25T01:12:20.053Z,20.48
2018-06-25T01:13:20.128Z,20.48
2018-06-25T01:14:20.097Z,20.47
2018-06-25T01:15:20.146Z,20.47
2018-06-25T01:16:19.964Z,20.47
2018-06-25T01:17:20.200Z,20.47
2018-06-25T01:18:20.080Z,20.47
2018-06-25T01:19:20.026Z,20.47
2018-06-25T01:20:20.216Z,20.47
2018-06-25T01:21:20.278Z,20.47
2018-06-25T01:22:20.093Z,20.47
2018-06-25T01:23:20.111Z,20.46
2018-06-25T01:24:20.063Z,20.47
2018-06-25T01:25:20.346Z,20.47
2018-06-25T01:26:19.986Z,20.47
2018-06-25T01:27:20.119Z,20.47
2018-06-25T01:28:19.979Z,20.47
2018-06-25T01:29:20.139Z,20.47
2018-06-25T01:30:20.146Z,20.46
2018-06-25T01:31:20.169Z,20.46
2018-06-25T01:32:19.981Z,20.46
2018-06-25T01:33:20.121Z,20.46
2018-06-25T01:34:19.965Z,20.46
2018-06-25T01:35:19.985Z,20.47
2018-06-25T01:36:20.016Z,20.46
2018-06-25T01:37:20.203Z,20.46
2018-06-25T01:38:20.119Z,20.46
2018-06-25T01:39:20.180Z,20.47
2018-06-25T01:40:20.171Z,20.46
2018-06-25T01:41:20.119Z,20.45
2018-06-25T01:42:20.117Z,20.47
2018-06-25T01:43:19.961Z,20.46
2018-06-25T01:44:19.986Z,20.46
2018-06-25T01:45:20.055Z,20.45
2018-06-25T01:46:20.245Z,20.45
2018-06-25T01:47:20.286Z,20.45
2018-06-25T01:48:20.208Z,20.44
2018-06-25T01:49:20.217Z,20.45
2018-06-25T01:50:20.182Z,20.45
2018-06-25T01:51:20.256Z,20.45
2018-06-25T01:52:20.013Z,20.45
2018-06-25T01:53:20.056Z,20.45
2018-06-25T01:54:20.201Z,20.45
2018-06-25T01:55:20.119Z,20.45
2018-06-25T01:56:20.076Z,20.45
2018-06-25T01:57:20.121Z,20.45
2018-06-25T01:58:20.059Z,20.45
2018-06-25T01:59:20.159Z,20.45
2018-06-25T02:00:20.032Z,20.45
2018-06-25T02:01:20.399Z,20.45
2018-06-25T02:02:20.294Z,20.45
2018-06-25T02:03:19.969Z,20.45
2018-06-25T02:04:20.499Z,20.44
2018-06-25T02:05:20.093Z,20.44
2018-06-25T02:06:20.002Z,20.44
2018-06-25T02:07:20.185Z,20.44
2018-06-25T02:08:20.029Z,20.44
2018-06-25T02:09:20.214Z,20.44
2018-06-25T02:10:19.959Z,20.43
2018-06-25T02:11:20.153Z,20.44
2018-06-25T02:12:20.082Z,20.43
2018-06-25T02:13:20.438Z,20.43
2018-06-25T02:14:19.959Z,20.44
2018-06-25T02:15:20.553Z,20.43
2018-06-25T02:16:20.134Z,20.43
2018-06-25T02:17:20.075Z,20.43
2018-06-25T02:18:20.002Z,20.43
2018-06-25T02:19:20.368Z,20.43
2018-06-25T02:20:20.159Z,20.43
2018-06-25T02:21:20.114Z,20.43
2018-06-25T02:22:20.047Z,20.43
2018-06-25T02:23:20.200Z,20.43
2018-06-25T02:24:19.908Z,20.44
2018-06-25T02:25:20.094Z,20.43
2018-06-25T02:26:20.177Z,20.43
2018-06-25T02:27:20.256Z,20.43
2018-06-25T02:28:20.004Z,20.43
2018-06-25T02:29:20.727Z,20.43
2018-06-25T02:30:20.231Z,20.42
2018-06-25T02:31:20.178Z,20.42
2018-06-25T02:32:20.049Z,20.42
2018-06-25T02:33:20.262Z,20.42
2018-06-25T02:34:20.930Z,20.42
2018-06-25T02:35:20.399Z,20.42
2018-06-25T02:36:19.977Z,20.42
2018-06-25T02:37:20.278Z,20.42
2018-06-25T02:38:20.114Z,20.42
2018-06-25T02:39:20.001Z,20.42
2018-06-25T02:40:20.101Z,20.42
2018-06-25T02:41:19.970Z,20.42
2018-06-25T02:42:20.042Z,20.41
2018-06-25T02:43:20.113Z,20.41
2018-06-25T02:44:19.972Z,20.41
2018-06-25T02:45:20.152Z,20.41
2018-06-25T02:46:20.063Z,20.42
2018-06-25T02:47:20.218Z,20.41
2018-06-25T02:48:19.877Z,20.41
2018-06-25T02:49:20.115Z,20.41
2018-06-25T02:50:19.925Z,20.41
2018-06-25T02:51:20.150Z,20.41
2018-06-25T02:52:20.554Z,20.41
2018-06-25T02:53:19.958Z,20.41
2018-06-25T02:54:20.160Z,20.41
2018-06-25T02:55:20.069Z,20.41
2018-06-25T02:56:20.209Z,20.41
2018-06-25T02:57:20.163Z,20.41
2018-06-25T02:58:20.138Z,20.41
2018-06-25T02:59:20.789Z,20.41
2018-06-25T03:00:19.924Z,20.41
2018-06-25T03:01:20.160Z,20.41
2018-06-25T03:02:20.261Z,20.41
2018-06-25T03:03:20.200Z,20.4
2018-06-25T03:04:19.996Z,20.4
2018-06-25T03:05:19.977Z,20.41
2018-06-25T03:06:20.431Z,20.41
2018-06-25T03:07:20.091Z,20.41
2018-06-25T03:08:20.019Z,20.41
2018-06-25T03:09:20.225Z,20.41
2018-06-25T03:10:20.167Z,20.41
2018-06-25T03:11:20.082Z,20.4
2018-06-25T03:12:19.998Z,20.41
2018-06-25T03:13:20.150Z,20.41
2018-06-25T03:14:20.006Z,20.41
2018-06-25T03:15:20.043Z,20.41
2018-06-25T03:16:19.950Z,20.41
2018-06-25T03:17:20.207Z,20.4
2018-06-25T03:18:20.123Z,20.4
2018-06-25T03:19:20.138Z,20.41
2018-06-25T03:20:20.241Z,20.41
2018-06-25T03:21:20.005Z,20.41
2018-06-25T03:22:20.151Z,20.4
2018-06-25T03:23:20.089Z,20.4
2018-06-25T03:24:20.304Z,20.4
2018-06-25T03:25:20.055Z,20.4
2018-06-25T03:26:20.108Z,20.41
2018-06-25T03:27:20.152Z,20.41
2018-06-25T03:28:20.141Z,20.41
2018-06-25T03:29:19.967Z,20.4
2018-06-25T03:30:20.188Z,20.41
2018-06-25T03:31:20.122Z,20.4
2018-06-25T03:32:20.015Z,20.4
2018-06-25T03:33:19.974Z,20.4
2018-06-25T03:34:20.158Z,20.4
2018-06-25T03:35:45.481Z,20.4
2018-06-25T03:36:20.064Z,20.4
2018-06-25T03:37:20.212Z,20.41
2018-06-25T03:38:19.900Z,20.4
2018-06-25T03:39:20.122Z,20.4
2018-06-25T03:40:20.123Z,20.4
2018-06-25T03:41:20.128Z,20.39
2018-06-25T03:42:19.981Z,20.39
2018-06-25T03:43:20.738Z,20.39
2018-06-25T03:44:20.141Z,20.39
2018-06-25T03:45:20.162Z,20.39
2018-06-25T03:46:20.188Z,20.4
2018-06-25T03:47:19.973Z,20.4
2018-06-25T03:48:19.920Z,20.39
2018-06-25T03:49:20.068Z,20.39
2018-06-25T03:50:19.986Z,20.39
2018-06-25T03:51:19.949Z,20.39
2018-06-25T03:52:20.032Z,20.39
2018-06-25T03:53:19.981Z,20.39
2018-06-25T03:54:19.955Z,20.39
2018-06-25T03:55:19.926Z,20.38
2018-06-25T03:56:19.942Z,20.38
2018-06-25T03:57:20.142Z,20.39
2018-06-25T03:58:20.125Z,20.38
2018-06-25T03:59:19.944Z,20.39
2018-06-25T04:00:20.067Z,20.39
2018-06-25T04:01:20.265Z,20.39
2018-06-25T04:02:20.120Z,20.38
2018-06-25T04:03:20.232Z,20.39
2018-06-25T04:04:19.973Z,20.39
2018-06-25T04:05:20.033Z,20.39
2018-06-25T04:06:19.976Z,20.4
2018-06-25T04:07:19.967Z,20.38
2018-06-25T04:08:20.142Z,20.38
2018-06-25T04:09:20.138Z,20.39
2018-06-25T04:10:20.194Z,20.38
2018-06-25T04:11:20.127Z,20.38
2018-06-25T04:12:20.042Z,20.38
2018-06-25T04:13:20.096Z,20.38
2018-06-25T04:14:19.931Z,20.38
2018-06-25T04:15:20.105Z,20.37
2018-06-25T04:16:20.161Z,20.38
2018-06-25T04:17:20.146Z,20.38
2018-06-25T04:18:20.137Z,20.38
2018-06-25T04:19:20.182Z,20.38
2018-06-25T04:20:20.160Z,20.38
2018-06-25T04:21:20.058Z,20.38
2018-06-25T04:22:20.113Z,20.37
2018-06-25T04:23:19.899Z,20.37
2018-06-25T04:24:20.127Z,20.38
2018-06-25T04:25:20.025Z,20.38
2018-06-25T04:26:19.932Z,20.37
2018-06-25T04:27:20.174Z,20.37
2018-06-25T04:28:20.049Z,20.37
2018-06-25T04:29:20.138Z,20.37
2018-06-25T04:30:20.190Z,20.37
2018-06-25T04:31:20.189Z,20.37
2018-06-25T04:32:19.988Z,20.37
2018-06-25T04:33:20.101Z,20.37
2018-06-25T04:34:20.219Z,20.37
2018-06-25T04:35:20.306Z,20.37
2018-06-25T04:36:20.008Z,20.37
2018-06-25T04:37:20.014Z,20.36
2018-06-25T04:38:20.132Z,20.37
2018-06-25T04:39:19.991Z,20.37
2018-06-25T04:40:20.466Z,20.36
2018-06-25T04:41:20.034Z,20.36
2018-06-25T04:42:20.344Z,20.37
2018-06-25T04:43:19.937Z,20.37
2018-06-25T04:44:20.060Z,20.36
2018-06-25T04:45:20.071Z,20.36
2018-06-25T04:46:19.968Z,20.36
2018-06-25T04:47:20.117Z,20.36
2018-06-25T04:48:19.991Z,20.35
2018-06-25T04:49:19.900Z,20.35
2018-06-25T04:50:20.049Z,20.35
2018-06-25T04:51:20.098Z,20.35
2018-06-25T04:52:19.887Z,20.35
2018-06-25T04:53:20.149Z,20.35
2018-06-25T04:54:20.054Z,20.35
2018-06-25T04:55:19.996Z,20.35
2018-06-25T04:56:19.985Z,20.35
2018-06-25T04:57:19.966Z,20.36
2018-06-25T04:58:20.138Z,20.35
2018-06-25T04:59:20.160Z,20.35
2018-06-25T05:00:20.015Z,20.35
2018-06-25T05:01:19.923Z,20.35
2018-06-25T05:02:20.091Z,20.35
2018-06-25T05:03:20.113Z,20.35
2018-06-25T05:04:19.992Z,20.35
2018-06-25T05:05:20.077Z,20.35
2018-06-25T05:06:19.992Z,20.35
2018-06-25T05:07:19.948Z,20.35
2018-06-25T05:08:20.109Z,20.35
2018-06-25T05:09:19.986Z,20.35
2018-06-25T05:10:20.128Z,20.35
2018-06-25T05:11:19.928Z,20.35
2018-06-25T05:12:19.894Z,20.35
2018-06-25T05:13:19.960Z,20.35
2018-06-25T05:14:20.194Z,20.35
2018-06-25T05:15:20.091Z,20.35
2018-06-25T05:16:20.128Z,20.35
2018-06-25T05:17:20.148Z,20.35
2018-06-25T05:18:20.257Z,20.35
2018-06-25T05:19:19.989Z,20.35
2018-06-25T05:20:20.144Z,20.35
2018-06-25T05:21:40.266Z,20.35
2018-06-25T05:22:19.944Z,20.35
2018-06-25T05:23:20.138Z,20.35
2018-06-25T05:24:19.988Z,20.35
2018-06-25T05:25:19.893Z,20.35
2018-06-25T05:26:20.035Z,20.35
2018-06-25T05:27:20.143Z,20.35
2018-06-25T05:28:19.916Z,20.35
2018-06-25T05:29:20.178Z,20.35
2018-06-25T05:30:20.005Z,20.35
2018-06-25T05:31:19.895Z,20.35
2018-06-25T05:32:20.080Z,20.35
2018-06-25T05:33:19.947Z,20.35
2018-06-25T05:34:19.970Z,20.35
2018-06-25T05:35:19.987Z,20.35
2018-06-25T05:36:20.112Z,20.35
2018-06-25T05:37:20.049Z,20.35
2018-06-25T05:38:20.193Z,20.35
2018-06-25T05:39:19.953Z,20.35
2018-06-25T05:40:20.028Z,20.35
2018-06-25T05:41:19.947Z,20.35
2018-06-25T05:42:20.092Z,20.35
2018-06-25T05:43:20.184Z,20.35
2018-06-25T05:44:19.887Z,20.35
2018-06-25T05:45:20.045Z,20.35
2018-06-25T05:46:20.165Z,20.35
2018-06-25T05:47:20.100Z,20.35
2018-06-25T05:48:20.022Z,20.35
2018-06-25T05:49:20.084Z,20.35
2018-06-25T05:50:20.028Z,20.35
2018-06-25T05:51:20.008Z,20.35
2018-06-25T05:52:20.009Z,20.35
2018-06-25T05:53:19.885Z,20.35
2018-06-25T05:54:20.003Z,20.35
2018-06-25T05:55:20.082Z,20.35
2018-06-25T05:56:20.174Z,20.35
2018-06-25T05:57:19.967Z,20.35
2018-06-25T05:58:20.078Z,20.35
2018-06-25T05:59:19.956Z,20.35
2018-06-25T06:00:20.082Z,20.35
2018-06-25T06:01:20.119Z,20.35
2018-06-25T06:02:19.856Z,20.35
2018-06-25T06:03:19.857Z,20.35
2018-06-25T06:04:19.887Z,20.35
2018-06-25T06:05:20.050Z,20.35
2018-06-25T06:06:19.973Z,20.35
2018-06-25T06:07:21.975Z,20.35
2018-06-25T06:08:20.044Z,20.35
2018-06-25T06:09:19.989Z,20.35
2018-06-25T06:10:20.132Z,20.35
2018-06-25T06:11:19.926Z,20.35
2018-06-25T06:12:20.326Z,20.35
2018-06-25T06:13:20.026Z,20.35
2018-06-25T06:14:19.996Z,20.35
2018-06-25T06:15:19.994Z,20.35
2018-06-25T06:16:20.051Z,20.35
2018-06-25T06:17:20.288Z,20.35
2018-06-25T06:18:20.189Z,20.35
2018-06-25T06:19:19.964Z,20.35
2018-06-25T06:20:20.152Z,20.35
2018-06-25T06:21:20.212Z,20.35
2018-06-25T06:22:20.042Z,20.35
2018-06-25T06:23:20.092Z,20.34
2018-06-25T06:24:20.372Z,20.35
2018-06-25T06:25:19.896Z,20.35
2018-06-25T06:26:20.364Z,20.35
2018-06-25T06:27:20.467Z,20.35
2018-06-25T06:28:20.149Z,20.35
2018-06-25T06:29:20.012Z,20.35
2018-06-25T06:30:20.412Z,20.34
2018-06-25T06:31:20.066Z,20.34
2018-06-25T06:32:20.049Z,20.34
2018-06-25T06:33:20.135Z,20.34
2018-06-25T06:34:20.102Z,20.34
2018-06-25T06:35:20.254Z,20.35
2018-06-25T06:36:20.111Z,20.35
2018-06-25T06:37:19.903Z,20.34
2018-06-25T06:38:19.868Z,20.34
2018-06-25T06:39:20.197Z,20.35
2018-06-25T06:40:20.040Z,20.34
2018-06-25T06:41:20.066Z,20.34
2018-06-25T06:42:19.869Z,20.33
2018-06-25T06:43:20.103Z,20.36
2018-06-25T06:44:20.040Z,20.37
2018-06-25T06:45:20.212Z,20.38
2018-06-25T06:46:20.103Z,20.38
2018-06-25T06:47:19.880Z,20.36
2018-06-25T06:48:20.054Z,20.36
2018-06-25T06:49:20.048Z,20.36
2018-06-25T06:50:20.086Z,20.37
2018-06-25T06:51:19.986Z,20.34
2018-06-25T06:52:20.056Z,20.35
2018-06-25T06:53:20.258Z,20.34
2018-06-25T06:54:20.054Z,20.35
2018-06-25T06:55:20.117Z,20.35
2018-06-25T06:56:29.991Z,20.35
2018-06-25T06:57:20.080Z,20.36
2018-06-25T06:58:20.170Z,20.35
2018-06-25T06:59:20.113Z,20.36
2018-06-25T07:00:19.963Z,20.36
2018-06-25T07:01:20.250Z,20.37
2018-06-25T07:02:20.010Z,20.37
2018-06-25T07:03:20.337Z,20.36
2018-06-25T07:04:20.090Z,20.37
2018-06-25T07:05:20.153Z,20.36
2018-06-25T07:06:20.216Z,20.37
2018-06-25T07:07:19.884Z,20.37
2018-06-25T07:08:20.123Z,20.37
2018-06-25T07:09:19.990Z,20.38
2018-06-25T07:10:20.559Z,20.38
2018-06-25T07:11:19.933Z,20.38
2018-06-25T07:12:20.104Z,20.38
2018-06-25T07:13:19.834Z,20.38
2018-06-25T07:14:19.846Z,20.38
2018-06-25T07:15:20.113Z,20.38
2018-06-25T07:16:20.051Z,20.38
2018-06-25T07:17:20.035Z,20.38
2018-06-25T07:18:19.946Z,20.38
2018-06-25T07:19:20.026Z,20.38
2018-06-25T07:20:20.044Z,20.38
2018-06-25T07:21:20.160Z,20.37
2018-06-25T07:22:19.877Z,20.38
2018-06-25T07:23:19.843Z,20.38
2018-06-25T07:24:20.064Z,20.37
2018-06-25T07:25:19.872Z,20.38
2018-06-25T07:26:20.014Z,20.38
2018-06-25T07:27:19.928Z,20.38
2018-06-25T07:28:20.069Z,20.37
2018-06-25T07:29:20.031Z,20.37
2018-06-25T07:30:19.975Z,20.38
2018-06-25T07:31:20.097Z,20.37
2018-06-25T07:32:19.919Z,20.37
2018-06-25T07:33:20.013Z,20.38
2018-06-25T07:34:20.049Z,20.38
2018-06-25T07:35:20.139Z,20.37
2018-06-25T07:36:20.005Z,20.37
2018-06-25T07:37:20.147Z,20.37
2018-06-25T07:38:20.182Z,20.37
2018-06-25T07:39:19.921Z,20.38
2018-06-25T07:40:20.138Z,20.38
2018-06-25T07:41:19.860Z,20.38
2018-06-25T07:42:20.135Z,20.37
2018-06-25T07:43:19.904Z,20.37
2018-06-25T07:44:20.044Z,20.37
2018-06-25T07:45:19.948Z,20.37
2018-06-25T07:46:19.874Z,20.37
2018-06-25T07:47:21.316Z,20.37
2018-06-25T07:48:20.232Z,20.37
2018-06-25T07:49:20.016Z,20.37
2018-06-25T07:50:30.035Z,20.37
2018-06-25T07:51:19.829Z,20.37
2018-06-25T07:52:20.173Z,20.36
2018-06-25T07:53:20.556Z,20.37
2018-06-25T07:54:19.971Z,20.37
2018-06-25T07:55:20.078Z,20.37
2018-06-25T07:56:19.946Z,20.37
2018-06-25T07:57:19.869Z,20.37
2018-06-25T07:58:19.978Z,20.37
2018-06-25T07:59:19.859Z,20.37
2018-06-25T08:00:20.012Z,20.37
2018-06-25T08:01:20.074Z,20.37
2018-06-25T08:02:20.159Z,20.37
2018-06-25T08:03:19.934Z,20.37
2018-06-25T08:04:20.031Z,20.37
2018-06-25T08:05:20.156Z,20.37
2018-06-25T08:06:20.052Z,20.37
2018-06-25T08:07:20.136Z,20.37
2018-06-25T08:08:20.093Z,20.37
2018-06-25T08:09:20.080Z,20.37
2018-06-25T08:10:20.630Z,20.37
2018-06-25T08:11:20.042Z,20.37
2018-06-25T08:12:19.947Z,20.37
2018-06-25T08:13:19.965Z,20.36
2018-06-25T08:14:20.110Z,20.37
2018-06-25T08:15:20.024Z,20.37
2018-06-25T08:16:20.865Z,20.36
2018-06-25T08:17:19.939Z,20.36
2018-06-25T08:18:19.917Z,20.36
2018-06-25T08:19:20.120Z,20.36
2018-06-25T08:20:20.258Z,20.36
2018-06-25T08:21:19.955Z,20.36
2018-06-25T08:22:20.059Z,20.36
2018-06-25T08:23:19.869Z,20.36
2018-06-25T08:24:20.013Z,20.36
2018-06-25T08:25:19.985Z,20.36
2018-06-25T08:26:19.871Z,20.36
2018-06-25T08:27:19.889Z,20.36
2018-06-25T08:28:20.042Z,20.36
2018-06-25T08:29:20.055Z,20.36
2018-06-25T08:30:19.999Z,20.36
2018-06-25T08:31:19.908Z,20.35
2018-06-25T08:32:20.070Z,20.36
2018-06-25T08:33:20.045Z,20.36
2018-06-25T08:34:21.433Z,20.36
2018-06-25T08:35:19.919Z,20.36
2018-06-25T08:36:19.981Z,20.36
2018-06-25T08:37:19.831Z,20.35
2018-06-25T08:38:19.947Z,20.35
2018-06-25T08:39:20.156Z,20.35
2018-06-25T08:40:20.937Z,20.35
2018-06-25T08:41:19.966Z,20.36
2018-06-25T08:42:20.134Z,20.35
2018-06-25T08:43:20.314Z,20.35
2018-06-25T08:44:19.815Z,20.36
2018-06-25T08:45:19.945Z,20.36
2018-06-25T08:46:19.985Z,20.35
2018-06-25T08:47:20.003Z,20.36
2018-06-25T08:48:20.021Z,20.35
2018-06-25T08:49:19.920Z,20.35
2018-06-25T08:50:20.141Z,20.36
2018-06-25T08:51:20.032Z,20.35
2018-06-25T08:52:20.159Z,20.35
2018-06-25T08:53:20.029Z,20.35
2018-06-25T08:54:20.233Z,20.35
2018-06-25T08:55:20.115Z,20.35
2018-06-25T08:56:20.032Z,20.35
2018-06-25T08:57:20.031Z,20.35
2018-06-25T08:58:19.953Z,20.35
2018-06-25T08:59:20.111Z,20.35
2018-06-25T09:00:19.916Z,20.35
2018-06-25T09:01:20.150Z,20.35
2018-06-25T09:02:19.906Z,20.35
2018-06-25T09:03:21.019Z,20.35
2018-06-25T09:04:20.598Z,20.35
2018-06-25T09:05:20.804Z,20.35
2018-06-25T09:06:20.319Z,20.35
2018-06-25T09:07:20.048Z,20.35
2018-06-25T09:08:20.007Z,20.35
2018-06-25T09:09:20.051Z,20.35
2018-06-25T09:10:19.938Z,20.35
2018-06-25T09:11:19.867Z,20.35
2018-06-25T09:12:19.992Z,20.35
2018-06-25T09:13:20.008Z,20.35
2018-06-25T09:14:19.989Z,20.35
2018-06-25T09:15:20.664Z,20.35
2018-06-25T09:16:19.986Z,20.35
2018-06-25T09:17:20.060Z,20.35
2018-06-25T09:18:19.975Z,20.35
2018-06-25T09:19:20.041Z,20.35
2018-06-25T09:20:19.803Z,20.35
2018-06-25T09:21:19.877Z,20.35
2018-06-25T09:22:20.048Z,20.35
2018-06-25T09:23:20.030Z,20.35
2018-06-25T09:24:19.937Z,20.35
2018-06-25T09:25:20.078Z,20.34
2018-06-25T09:26:20.006Z,20.35
2018-06-25T09:27:19.949Z,20.35
2018-06-25T09:28:20.068Z,20.35
2018-06-25T09:29:19.824Z,20.35
2018-06-25T09:30:19.948Z,20.35
2018-06-25T09:31:19.972Z,20.35
2018-06-25T09:32:20.071Z,20.35
2018-06-25T09:33:19.966Z,20.36
2018-06-25T09:34:20.071Z,20.37
2018-06-25T09:35:20.465Z,20.37
2018-06-25T09:36:20.150Z,20.37
2018-06-25T09:37:19.951Z,20.38
2018-06-25T09:38:19.790Z,20.38
2018-06-25T09:39:19.816Z,20.38
2018-06-25T09:40:19.901Z,20.39
2018-06-25T09:41:21.014Z,20.39
2018-06-25T09:42:19.930Z,20.39
2018-06-25T09:43:20.016Z,20.39
2018-06-25T09:44:19.798Z,20.39
2018-06-25T09:45:19.920Z,20.4
2018-06-25T09:46:20.149Z,20.4
2018-06-25T09:47:19.831Z,20.4
2018-06-25T09:48:19.892Z,20.4
2018-06-25T09:49:20.121Z,20.4
2018-06-25T09:50:19.880Z,20.4
2018-06-25T09:51:19.871Z,20.4
2018-06-25T09:52:19.851Z,20.41
2018-06-25T09:53:19.912Z,20.41
2018-06-25T09:54:19.832Z,20.41
2018-06-25T09:55:20.064Z,20.41
2018-06-25T09:56:19.831Z,20.41
2018-06-25T09:57:20.046Z,20.41
2018-06-25T09:58:19.884Z,20.41
2018-06-25T09:59:20.118Z,20.41
2018-06-25T10:00:20.090Z,20.41
2018-06-25T10:01:19.812Z,20.41
2018-06-25T10:02:20.045Z,20.41
2018-06-25T10:03:20.055Z,20.41
2018-06-25T10:04:20.083Z,20.41
2018-06-25T10:05:20.391Z,20.41
2018-06-25T10:06:20.080Z,20.41
2018-06-25T10:07:19.843Z,20.41
2018-06-25T10:08:19.960Z,20.41
2018-06-25T10:09:20.002Z,20.41
2018-06-25T10:10:20.084Z,20.41
2018-06-25T10:11:20.422Z,20.41
2018-06-25T10:12:20.154Z,20.41
2018-06-25T10:13:20.142Z,20.41
2018-06-25T10:14:19.952Z,20.41
2018-06-25T10:15:20.365Z,20.41
2018-06-25T10:16:19.887Z,20.41
2018-06-25T10:17:20.212Z,20.41
2018-06-25T10:18:20.068Z,20.41
2018-06-25T10:19:20.095Z,20.41
2018-06-25T10:20:19.919Z,20.41
2018-06-25T10:21:20.424Z,20.41
2018-06-25T10:22:19.993Z,20.41
2018-06-25T10:23:20.014Z,20.41
2018-06-25T10:24:19.975Z,20.41
2018-06-25T10:25:19.834Z,20.42
2018-06-25T10:26:20.064Z,20.42
2018-06-25T10:27:20.072Z,20.41
2018-06-25T10:28:19.984Z,20.41
2018-06-25T10:29:19.979Z,20.42
2018-06-25T10:30:20.040Z,20.42
2018-06-25T10:31:20.193Z,20.42
2018-06-25T10:32:19.832Z,20.42
2018-06-25T10:33:20.103Z,20.42
2018-06-25T10:34:19.896Z,20.42
2018-06-25T10:35:20.125Z,20.42
2018-06-25T10:36:20.022Z,20.41
2018-06-25T10:37:20.040Z,20.42
2018-06-25T10:38:19.969Z,20.42
2018-06-25T10:39:19.984Z,20.42
2018-06-25T10:40:20.089Z,20.42
2018-06-25T10:41:19.879Z,20.42
2018-06-25T10:42:20.622Z,20.42
2018-06-25T10:43:19.764Z,20.42
2018-06-25T10:44:19.844Z,20.42
2018-06-25T10:45:19.938Z,20.42
2018-06-25T10:46:20.073Z,20.42
2018-06-25T10:47:19.942Z,20.43
2018-06-25T10:48:19.954Z,20.42
2018-06-25T10:49:20.121Z,20.43
2018-06-25T10:50:19.894Z,20.42
2018-06-25T10:51:20.422Z,20.43
2018-06-25T10:52:19.820Z,20.42
2018-06-25T10:53:19.910Z,20.43
2018-06-25T10:54:19.911Z,20.42
2018-06-25T10:55:20.032Z,20.41
2018-06-25T10:56:19.819Z,20.41
2018-06-25T10:57:19.794Z,20.41
2018-06-25T10:58:20.019Z,20.41
2018-06-25T10:59:20.261Z,20.39
2018-06-25T11:00:21.695Z,20.4
2018-06-25T11:01:19.812Z,20.41
2018-06-25T11:02:19.798Z,20.41
2018-06-25T11:03:19.863Z,20.41
2018-06-25T11:04:19.920Z,20.41
2018-06-25T11:05:19.950Z,20.41
2018-06-25T11:06:19.894Z,20.41
2018-06-25T11:07:21.144Z,20.41
2018-06-25T11:08:20.025Z,20.41
2018-06-25T11:09:19.902Z,20.41
2018-06-25T11:10:19.863Z,20.39
2018-06-25T11:11:19.838Z,20.39
2018-06-25T11:12:19.961Z,20.4
2018-06-25T11:13:20.113Z,20.4
2018-06-25T11:14:19.800Z,20.4
2018-06-25T11:15:20.025Z,20.39
2018-06-25T11:16:20.054Z,20.4
2018-06-25T11:17:19.992Z,20.39
2018-06-25T11:18:19.923Z,20.39
2018-06-25T11:19:19.780Z,20.39
2018-06-25T11:20:19.904Z,20.39
2018-06-25T11:21:19.864Z,20.39
2018-06-25T11:22:19.966Z,20.38
2018-06-25T11:23:20.068Z,20.38
2018-06-25T11:24:19.940Z,20.38
2018-06-25T11:25:20.146Z,20.38
2018-06-25T11:26:20.009Z,20.38
2018-06-25T11:27:20.755Z,20.38
2018-06-25T11:28:19.940Z,20.38
2018-06-25T11:29:19.927Z,20.37
2018-06-25T11:30:20.040Z,20.38
2018-06-25T11:31:20.273Z,20.37
2018-06-25T11:32:19.912Z,20.38
2018-06-25T11:33:19.787Z,20.38
2018-06-25T11:34:20.115Z,20.37
2018-06-25T11:35:19.812Z,20.37
2018-06-25T11:36:20.080Z,20.37
2018-06-25T11:37:19.793Z,20.36
2018-06-25T11:38:19.966Z,20.36
2018-06-25T11:39:20.092Z,20.36
2018-06-25T11:40:20.101Z,20.36
2018-06-25T11:41:19.836Z,20.37
2018-06-25T11:42:20.112Z,20.37
2018-06-25T11:43:19.938Z,20.38
2018-06-25T11:44:19.968Z,20.37
2018-06-25T11:45:19.912Z,20.36
2018-06-25T11:46:19.900Z,20.37
2018-06-25T11:47:19.832Z,20.36
2018-06-25T11:48:19.967Z,20.36
2018-06-25T11:49:19.827Z,20.36
2018-06-25T11:50:20.023Z,20.36
2018-06-25T11:51:19.917Z,20.35
2018-06-25T11:52:20.132Z,20.35
2018-06-25T11:53:20.050Z,20.35
2018-06-25T11:54:20.073Z,20.35
2018-06-25T11:55:20.178Z,20.35
2018-06-25T11:56:19.933Z,20.35
2018-06-25T11:57:19.778Z,20.36
2018-06-25T11:58:20.083Z,20.35
2018-06-25T11:59:19.749Z,20.35
2018-06-25T12:00:19.968Z,20.34
2018-06-25T12:01:20.076Z,20.35
2018-06-25T12:02:20.001Z,20.35
2018-06-25T12:03:20.868Z,20.35
2018-06-25T12:04:19.918Z,20.34
2018-06-25T12:05:19.986Z,20.34
2018-06-25T12:06:19.765Z,20.35
2018-06-25T12:07:19.988Z,20.35
2018-06-25T12:08:20.022Z,20.35
2018-06-25T12:09:19.998Z,20.36
2018-06-25T12:10:19.805Z,20.35
2018-06-25T12:11:19.955Z,20.35
2018-06-25T12:12:20.500Z,20.36
2018-06-25T12:13:20.126Z,20.37
2018-06-25T12:14:19.955Z,20.37
2018-06-25T12:15:19.820Z,20.38
2018-06-25T12:16:19.867Z,20.4
2018-06-25T12:17:19.918Z,20.41
2018-06-25T12:18:19.887Z,20.41
2018-06-25T12:19:20.139Z,20.42
2018-06-25T12:20:20.052Z,20.41
2018-06-25T12:21:20.011Z,20.41
2018-06-25T12:22:19.984Z,20.42
2018-06-25T12:23:20.376Z,20.42
2018-06-25T12:24:19.885Z,20.43
2018-06-25T12:25:19.968Z,20.43
2018-06-25T12:26:19.901Z,20.41
2018-06-25T12:27:19.981Z,20.44
2018-06-25T12:28:19.916Z,20.44
2018-06-25T12:29:19.936Z,20.45
2018-06-25T12:30:19.845Z,20.46
2018-06-25T12:31:20.294Z,20.45
2018-06-25T12:32:20.058Z,20.47
2018-06-25T12:33:19.894Z,20.48
2018-06-25T12:34:19.894Z,20.47
2018-06-25T12:35:19.787Z,20.48
2018-06-25T12:36:20.055Z,20.49
2018-06-25T12:37:20.186Z,20.5
2018-06-25T12:38:20.068Z,20.5
2018-06-25T12:39:20.103Z,20.51
2018-06-25T12:40:20.105Z,20.52
2018-06-25T12:41:20.124Z,20.53
2018-06-25T12:42:19.916Z,20.53
2018-06-25T12:43:19.939Z,20.54
2018-06-25T12:44:19.877Z,20.54
2018-06-25T12:45:19.811Z,20.54
2018-06-25T12:46:19.964Z,20.56
2018-06-25T12:47:19.955Z,20.55
2018-06-25T12:48:20.251Z,20.55
2018-06-25T12:49:20.157Z,20.55
2018-06-25T12:50:19.880Z,20.55
2018-06-25T12:51:19.846Z,20.56
2018-06-25T12:52:20.045Z,20.57
2018-06-25T12:53:19.734Z,20.57
2018-06-25T12:54:20.100Z,20.56